Time,TemperatureF,DewpointF,PressureIn,WindDirection,WindDirectionDegrees,WindSpeedMPH,WindSpeedGustMPH,Humidity,HourlyPrecipIn,Conditions,Clouds,dailyrainin,SoftwareType,DateUTC
2013-01-30 00:00:00,58.1,48.4,29.84,South,190,0.0,6.0,70,0.00,,SKC,0.02,VWS V14.01,2013-01-30 05:00:00,
2013-01-30 00:03:00,58.1,48.8,29.84,SSE,150,0.0,1.0,71,0.00,,SKC,0.02,VWS V14.01,2013-01-30 05:03:00,
2013-01-30 00:08:00,58.0,48.7,29.83,SSE,161,0.0,4.0,71,0.00,,SKC,0.00,VWS V14.01,2013-01-30 05:08:00,
2013-01-30 00:13:00,57.9,48.2,29.83,SW,222,2.0,2.0,70,0.00,,SKC,0.00,VWS V14.01,2013-01-30 05:13:00,
2013-01-30 00:18:00,57.8,48.5,29.83,SE,139,5.0,5.0,71,0.00,,SKC,0.00,VWS V14.01,2013-01-30 05:18:00,
2013-01-30 00:23:00,57.8,48.1,29.83,South,169,0.0,4.0,70,0.00,,SKC,0.00,VWS V14.01,2013-01-30 05:23:00,
2013-01-30 00:28:00,57.8,48.1,29.83,SSE,149,4.0,5.0,70,0.00,,SKC,0.00,VWS V14.01,2013-01-30 05:28:00,
2013-01-30 00:33:00,57.8,48.5,29.83,SE,146,1.0,5.0,71,0.00,,SKC,0.00,VWS V14.01,2013-01-30 05:33:00,
2013-01-30 00:38:00,57.7,48.4,29.82,ESE,120,0.0,0.0,71,0.00,,SKC,0.00,VWS V14.01,2013-01-30 05:38:00,
2013-01-30 00:43:00,57.7,48.4,29.82,South,186,0.0,0.0,71,0.00,,SKC,0.00,VWS V14.01,2013-01-30 05:43:00,
2013-01-30 00:48:00,57.7,48.4,29.81,South,169,4.0,5.0,71,0.00,,SKC,0.00,VWS V14.01,2013-01-30 05:48:00,
2013-01-30 00:53:00,57.7,48.8,29.80,SW,230,1.0,1.0,72,0.00,,SKC,0.00,VWS V14.01,2013-01-30 05:53:00,
2013-01-30 00:58:00,57.7,48.8,29.80,SSE,160,5.0,6.0,72,0.00,,SKC,0.00,VWS V14.01,2013-01-30 05:58:00,
2013-01-30 01:03:00,57.7,49.1,29.80,South,191,3.0,8.0,73,0.00,,SKC,0.00,VWS V14.01,2013-01-30 06:03:00,
2013-01-30 01:08:00,57.8,49.2,29.79,SSE,167,1.0,1.0,73,0.00,,SKC,0.00,VWS V14.01,2013-01-30 06:08:00,
2013-01-30 01:13:00,57.8,49.2,29.79,WNW,301,0.0,4.0,73,0.00,,SKC,0.00,VWS V14.01,2013-01-30 06:13:00,
2013-01-30 01:18:00,57.8,49.6,29.79,SW,233,0.0,9.0,74,0.00,,SKC,0.00,VWS V14.01,2013-01-30 06:18:00,
2013-01-30 01:23:00,57.8,49.6,29.79,West,265,0.0,4.0,74,0.00,,SKC,0.00,VWS V14.01,2013-01-30 06:23:00,
2013-01-30 01:28:00,57.7,49.8,29.78,West,265,0.0,0.0,75,0.00,,SKC,0.00,VWS V14.01,2013-01-30 06:28:00,
2013-01-30 01:33:00,57.6,49.4,29.78,South,177,5.0,5.0,74,0.00,,SKC,0.00,VWS V14.01,2013-01-30 06:33:00,
2013-01-30 01:38:00,57.5,49.7,29.78,SSE,159,1.0,6.0,75,0.00,,SKC,0.00,VWS V14.01,2013-01-30 06:38:00,
2013-01-30 01:43:00,57.3,49.5,29.78,WNW,294,0.0,0.0,75,0.00,,SKC,0.00,VWS V14.01,2013-01-30 06:43:00,
2013-01-30 01:48:00,57.3,49.5,29.78,ESE,103,1.0,4.0,75,0.00,,SKC,0.00,VWS V14.01,2013-01-30 06:48:00,
2013-01-30 01:53:00,57.3,49.8,29.78,South,171,0.0,1.0,76,0.00,,SKC,0.00,VWS V14.01,2013-01-30 06:53:00,
2013-01-30 01:58:00,57.3,49.8,29.77,SW,232,0.0,2.0,76,0.00,,SKC,0.00,VWS V14.01,2013-01-30 06:58:00,
2013-01-30 02:03:00,57.4,49.9,29.77,South,174,5.0,6.0,76,0.00,,SKC,0.00,VWS V14.01,2013-01-30 07:03:00,
2013-01-30 02:08:00,57.5,50.4,29.76,East,92,0.0,0.0,77,0.00,,SKC,0.00,VWS V14.01,2013-01-30 07:08:00,
2013-01-30 02:13:00,57.5,50.4,29.75,SSE,166,5.0,9.0,77,0.00,,SKC,0.00,VWS V14.01,2013-01-30 07:13:00,
2013-01-30 02:18:00,57.7,50.9,29.75,SW,234,1.0,8.0,78,0.00,,SKC,0.00,VWS V14.01,2013-01-30 07:18:00,
2013-01-30 02:23:00,57.9,51.1,29.75,West,263,0.0,0.0,78,0.00,,SKC,0.00,VWS V14.01,2013-01-30 07:23:00,
2013-01-30 02:28:00,58.2,51.4,29.75,WSW,239,1.0,14.0,78,0.00,,SKC,0.00,VWS V14.01,2013-01-30 07:28:00,
2013-01-30 02:33:00,58.4,51.6,29.75,SSE,155,4.0,10.0,78,0.00,,SKC,0.00,VWS V14.01,2013-01-30 07:33:00,
2013-01-30 02:38:00,58.5,51.3,29.75,North,360,3.0,6.0,77,0.00,,SKC,0.00,VWS V14.01,2013-01-30 07:38:00,
2013-01-30 02:43:00,58.5,51.3,29.74,NW,312,0.0,1.0,77,0.00,,SKC,0.00,VWS V14.01,2013-01-30 07:43:00,
2013-01-30 02:48:00,58.5,51.3,29.74,NW,317,0.0,4.0,77,0.00,,SKC,0.00,VWS V14.01,2013-01-30 07:48:00,
2013-01-30 02:53:00,58.4,51.2,29.74,WNW,287,4.0,6.0,77,0.00,,SKC,0.00,VWS V14.01,2013-01-30 07:53:00,
2013-01-30 02:58:00,58.3,51.1,29.74,SSE,155,0.0,10.0,77,0.00,,SKC,0.00,VWS V14.01,2013-01-30 07:58:00,
2013-01-30 03:03:00,58.2,51.4,29.73,WNW,302,4.0,6.0,78,0.00,,SKC,0.00,VWS V14.01,2013-01-30 08:03:00,
2013-01-30 03:08:00,58.2,51.4,29.74,South,184,0.0,1.0,78,0.00,,SKC,0.00,VWS V14.01,2013-01-30 08:08:00,
2013-01-30 03:13:00,58.2,51.7,29.73,East,83,0.0,2.0,79,0.00,,SKC,0.00,VWS V14.01,2013-01-30 08:13:00,
2013-01-30 03:18:00,58.4,51.9,29.73,SSW,198,11.0,12.0,79,0.00,,SKC,0.00,VWS V14.01,2013-01-30 08:18:00,
2013-01-30 03:23:00,58.5,52.0,29.73,WNW,300,10.0,10.0,79,0.00,,SKC,0.00,VWS V14.01,2013-01-30 08:23:00,
2013-01-30 03:28:00,58.6,52.1,29.73,South,180,10.0,10.0,79,0.00,,SKC,0.00,VWS V14.01,2013-01-30 08:28:00,
2013-01-30 03:33:00,58.7,52.2,29.73,SSW,211,3.0,5.0,79,0.00,,SKC,0.00,VWS V14.01,2013-01-30 08:33:00,
2013-01-30 03:38:00,58.8,52.7,29.72,SW,230,5.0,6.0,80,0.00,,SKC,0.00,VWS V14.01,2013-01-30 08:38:00,
2013-01-30 03:43:00,58.9,52.8,29.72,West,259,4.0,16.0,80,0.00,,SKC,0.00,VWS V14.01,2013-01-30 08:43:00,
2013-01-30 03:48:00,58.9,52.8,29.71,South,182,0.0,3.0,80,0.00,,SKC,0.00,VWS V14.01,2013-01-30 08:48:00,
2013-01-30 03:53:00,58.9,52.8,29.71,South,187,8.0,12.0,80,0.00,,SKC,0.00,VWS V14.01,2013-01-30 08:53:00,
2013-01-30 03:58:00,58.8,52.7,29.71,SSW,210,2.0,8.0,80,0.00,,SKC,0.00,VWS V14.01,2013-01-30 08:58:00,
2013-01-30 04:03:00,58.8,52.7,29.71,West,267,5.0,10.0,80,0.00,,SKC,0.00,VWS V14.01,2013-01-30 09:03:00,
2013-01-30 04:08:00,58.7,52.2,29.71,SSE,150,0.0,5.0,79,0.00,,SKC,0.00,VWS V14.01,2013-01-30 09:08:00,
2013-01-30 04:13:00,58.6,52.5,29.71,West,271,0.0,1.0,80,0.00,,SKC,0.00,VWS V14.01,2013-01-30 09:13:00,
2013-01-30 04:18:00,58.4,52.3,29.70,WSW,242,0.0,0.0,80,0.00,,SKC,0.00,VWS V14.01,2013-01-30 09:18:00,
2013-01-30 04:23:00,58.4,52.3,29.70,WNW,296,1.0,4.0,80,0.00,,SKC,0.00,VWS V14.01,2013-01-30 09:23:00,
2013-01-30 04:28:00,58.3,52.2,29.70,SSW,199,2.0,6.0,80,0.00,,SKC,0.00,VWS V14.01,2013-01-30 09:28:00,
2013-01-30 04:33:00,58.3,52.5,29.69,NNE,32,9.0,14.0,81,0.00,,SKC,0.00,VWS V14.01,2013-01-30 09:33:00,
2013-01-30 04:38:00,58.4,52.6,29.68,NW,320,4.0,5.0,81,0.00,,SKC,0.00,VWS V14.01,2013-01-30 09:38:00,
2013-01-30 04:43:00,58.5,52.7,29.68,SSW,211,2.0,2.0,81,0.00,,SKC,0.00,VWS V14.01,2013-01-30 09:43:00,
2013-01-30 04:48:00,58.4,52.6,29.68,North,5,3.0,3.0,81,0.00,,SKC,0.00,VWS V14.01,2013-01-30 09:48:00,
2013-01-30 04:53:00,58.4,52.6,29.68,WSW,251,9.0,9.0,81,0.00,,SKC,0.00,VWS V14.01,2013-01-30 09:53:00,
2013-01-30 04:58:00,58.4,52.6,29.67,West,275,5.0,5.0,81,0.00,,SKC,0.00,VWS V14.01,2013-01-30 09:58:00,
2013-01-30 05:03:00,58.4,52.6,29.67,WSW,250,1.0,7.0,81,0.00,,SKC,0.00,VWS V14.01,2013-01-30 10:03:00,
2013-01-30 05:08:00,58.4,52.6,29.67,WSW,249,1.0,3.0,81,0.00,,SKC,0.00,VWS V14.01,2013-01-30 10:08:00,
2013-01-30 05:13:00,58.4,52.9,29.66,NE,49,0.0,1.0,82,0.00,,SKC,0.00,VWS V14.01,2013-01-30 10:13:00,
2013-01-30 05:18:00,58.3,52.8,29.66,SSE,167,0.0,2.0,82,0.00,,SKC,0.00,VWS V14.01,2013-01-30 10:18:00,
2013-01-30 05:22:00,58.3,52.8,29.66,SSW,207,2.0,2.0,82,0.00,,SKC,0.00,VWS V14.01,2013-01-30 10:22:00,
2013-01-30 05:27:00,58.3,52.8,29.66,East,81,0.0,1.0,82,0.00,,SKC,0.00,VWS V14.01,2013-01-30 10:27:00,
2013-01-30 05:33:00,58.3,52.8,29.66,WSW,248,6.0,6.0,82,0.00,,SKC,0.00,VWS V14.01,2013-01-30 10:33:00,
2013-01-30 05:38:00,58.3,52.8,29.66,SW,219,3.0,3.0,82,0.00,,SKC,0.00,VWS V14.01,2013-01-30 10:38:00,
2013-01-30 05:43:00,58.3,52.8,29.65,ESE,115,3.0,3.0,82,0.00,,SKC,0.00,VWS V14.01,2013-01-30 10:43:00,
2013-01-30 05:48:00,58.5,53.0,29.65,SW,214,8.0,8.0,82,0.00,,SKC,0.00,VWS V14.01,2013-01-30 10:48:00,
2013-01-30 05:53:00,58.6,53.1,29.65,South,188,4.0,5.0,82,0.00,,SKC,0.00,VWS V14.01,2013-01-30 10:53:00,
2013-01-30 05:58:00,58.9,53.8,29.65,West,265,1.0,7.0,83,0.00,,SKC,0.00,VWS V14.01,2013-01-30 10:58:00,
2013-01-30 06:03:00,59.0,53.5,29.65,ESE,111,3.0,10.0,82,0.00,,SKC,0.00,VWS V14.01,2013-01-30 11:03:00,
2013-01-30 06:07:00,59.4,53.9,29.65,SW,227,10.0,10.0,82,0.00,,SKC,0.00,VWS V14.01,2013-01-30 11:07:00,
2013-01-30 06:12:00,59.9,54.4,29.65,NW,312,11.0,11.0,82,0.00,,SKC,0.00,VWS V14.01,2013-01-30 11:12:00,
2013-01-30 06:17:00,60.2,54.4,29.64,SSE,166,10.0,14.0,81,0.00,,SKC,0.00,VWS V14.01,2013-01-30 11:17:00,
2013-01-30 06:22:00,60.5,54.7,29.63,ESE,113,8.0,8.0,81,0.00,,SKC,0.00,VWS V14.01,2013-01-30 11:22:00,
2013-01-30 06:27:00,60.6,54.4,29.63,SW,217,2.0,4.0,80,0.00,,SKC,0.00,VWS V14.01,2013-01-30 11:27:00,
2013-01-30 06:32:00,60.7,54.5,29.63,WSW,249,7.0,8.0,80,0.00,,SKC,0.00,VWS V14.01,2013-01-30 11:32:00,
2013-01-30 06:37:00,60.8,54.6,29.63,WNW,294,1.0,3.0,80,0.00,,SKC,0.00,VWS V14.01,2013-01-30 11:37:00,
2013-01-30 06:42:00,60.7,54.5,29.62,West,261,12.0,12.0,80,0.00,,SKC,0.00,VWS V14.01,2013-01-30 11:42:00,
2013-01-30 06:47:00,60.8,54.6,29.60,SW,215,12.0,12.0,80,0.00,,SKC,0.00,VWS V14.01,2013-01-30 11:47:00,
2013-01-30 06:52:00,61.1,54.5,29.60,NNW,343,3.0,5.0,79,0.00,,SKC,0.00,VWS V14.01,2013-01-30 11:52:00,
2013-01-30 06:57:00,61.3,54.7,29.60,SW,230,6.0,6.0,79,0.00,,SKC,0.00,VWS V14.01,2013-01-30 11:57:00,
2013-01-30 07:02:00,61.4,54.5,29.60,South,170,9.0,9.0,78,0.00,,SKC,0.00,VWS V14.01,2013-01-30 12:02:00,
2013-01-30 07:07:00,61.6,54.7,29.59,West,261,4.0,11.0,78,0.00,,SKC,0.00,VWS V14.01,2013-01-30 12:07:00,
2013-01-30 07:12:00,61.9,54.6,29.59,ENE,74,2.0,10.0,77,0.00,,SKC,0.00,VWS V14.01,2013-01-30 12:12:00,
2013-01-30 07:17:00,62.1,54.5,29.59,ENE,59,4.0,19.0,76,0.00,,SKC,0.00,VWS V14.01,2013-01-30 12:17:00,
2013-01-30 07:22:00,62.3,54.7,29.60,SSW,198,4.0,12.0,76,0.00,,SKC,0.00,VWS V14.01,2013-01-30 12:22:00,
2013-01-30 07:27:00,62.4,54.4,29.60,North,5,1.0,9.0,75,0.00,,SKC,0.00,VWS V14.01,2013-01-30 12:27:00,
2013-01-30 07:32:00,62.5,54.5,29.60,SSW,207,4.0,7.0,75,0.00,,SKC,0.00,VWS V14.01,2013-01-30 12:32:00,
2013-01-30 07:37:00,62.5,54.5,29.60,SSW,210,4.0,9.0,75,0.00,,SKC,0.00,VWS V14.01,2013-01-30 12:37:00,
2013-01-30 07:42:00,62.5,54.5,29.59,West,272,6.0,13.0,75,0.00,,SKC,0.00,VWS V14.01,2013-01-30 12:42:00,
2013-01-30 07:47:00,62.5,54.5,29.59,SSW,208,5.0,12.0,75,0.00,,SKC,0.00,VWS V14.01,2013-01-30 12:47:00,
2013-01-30 07:52:00,62.6,54.6,29.58,South,171,14.0,14.0,75,0.00,,SKC,0.00,VWS V14.01,2013-01-30 12:52:00,
2013-01-30 07:57:00,62.7,54.7,29.58,SSW,205,3.0,11.0,75,0.00,,SKC,0.00,VWS V14.01,2013-01-30 12:57:00,
2013-01-30 08:02:00,62.7,54.7,29.58,SSE,161,8.0,12.0,75,0.00,,SKC,0.00,VWS V14.01,2013-01-30 13:02:00,
2013-01-30 08:07:00,62.8,54.8,29.58,ENE,61,0.0,9.0,75,0.00,,SKC,0.00,VWS V14.01,2013-01-30 13:07:00,
2013-01-30 08:12:00,62.8,54.8,29.58,SE,135,9.0,9.0,75,0.00,,SKC,0.00,VWS V14.01,2013-01-30 13:12:00,
2013-01-30 08:17:00,62.8,55.1,29.58,SE,131,4.0,23.0,76,0.00,,SKC,0.00,VWS V14.01,2013-01-30 13:17:00,
2013-01-30 08:22:00,62.8,55.1,29.57,SW,230,5.0,7.0,76,0.00,,SKC,0.00,VWS V14.01,2013-01-30 13:22:00,
2013-01-30 08:27:00,62.8,55.1,29.57,SSW,199,4.0,12.0,76,0.00,,SKC,0.00,VWS V14.01,2013-01-30 13:27:00,
2013-01-30 08:32:00,62.8,55.1,29.58,WSW,257,0.0,5.0,76,0.00,,SKC,0.00,VWS V14.01,2013-01-30 13:32:00,
2013-01-30 08:37:00,62.8,55.1,29.58,NNW,336,0.0,11.0,76,0.00,,SKC,0.00,VWS V14.01,2013-01-30 13:37:00,
2013-01-30 08:42:00,62.8,55.1,29.58,WNW,303,1.0,5.0,76,0.00,,SKC,0.00,VWS V14.01,2013-01-30 13:42:00,
2013-01-30 08:43:00,62.9,55.2,29.57,SSE,153,2.0,11.0,76,0.00,,SKC,0.00,VWS V14.01,2013-01-30 13:43:00,
2013-01-30 08:47:00,62.9,55.2,29.57,SSW,194,0.0,7.0,76,0.00,,SKC,0.00,VWS V14.01,2013-01-30 13:47:00,
2013-01-30 08:52:00,62.9,55.2,29.57,SSE,153,2.0,11.0,76,0.00,,SKC,0.00,VWS V14.01,2013-01-30 13:52:00,
2013-01-30 08:57:00,63.0,55.3,29.56,WSW,254,3.0,16.0,76,0.00,,SKC,0.00,VWS V14.01,2013-01-30 13:57:00,
2013-01-30 09:02:00,63.2,55.5,29.56,West,277,2.0,7.0,76,0.00,,SKC,0.00,VWS V14.01,2013-01-30 14:02:00,
2013-01-30 09:07:00,63.4,55.3,29.56,South,171,4.0,8.0,75,0.00,,SKC,0.00,VWS V14.01,2013-01-30 14:07:00,
2013-01-30 09:12:00,63.6,55.5,29.56,WNW,289,5.0,7.0,75,0.00,,SKC,0.00,VWS V14.01,2013-01-30 14:12:00,
2013-01-30 09:17:00,63.8,55.7,29.55,South,180,14.0,25.0,75,0.00,,SKC,0.00,VWS V14.01,2013-01-30 14:17:00,
2013-01-30 09:22:00,64.0,55.9,29.55,South,176,14.0,14.0,75,0.00,,SKC,0.00,VWS V14.01,2013-01-30 14:22:00,
2013-01-30 09:27:00,64.1,56.0,29.55,WSW,253,4.0,13.0,75,0.00,,SKC,0.00,VWS V14.01,2013-01-30 14:27:00,
2013-01-30 09:32:00,64.2,56.1,29.55,West,261,0.0,11.0,75,0.00,,SKC,0.00,VWS V14.01,2013-01-30 14:32:00,
2013-01-30 09:37:00,64.2,56.1,29.56,East,92,4.0,6.0,75,0.00,,SKC,0.00,VWS V14.01,2013-01-30 14:37:00,
2013-01-30 09:42:00,64.1,56.4,29.56,ESE,102,2.0,12.0,76,0.00,,SKC,0.00,VWS V14.01,2013-01-30 14:42:00,
2013-01-30 09:47:00,64.0,56.3,29.56,SSE,155,6.0,7.0,76,0.00,,SKC,0.00,VWS V14.01,2013-01-30 14:47:00,
2013-01-30 09:52:00,64.0,56.3,29.56,SSW,196,8.0,10.0,76,0.00,,SKC,0.00,VWS V14.01,2013-01-30 14:52:00,
2013-01-30 09:57:00,64.0,56.3,29.56,West,267,0.0,6.0,76,0.00,,SKC,0.00,VWS V14.01,2013-01-30 14:57:00,
2013-01-30 10:02:00,64.0,56.3,29.56,NW,318,8.0,9.0,76,0.00,,SKC,0.00,VWS V14.01,2013-01-30 15:02:00,
2013-01-30 10:07:00,64.1,56.4,29.55,SSW,211,2.0,5.0,76,0.00,,SKC,0.00,VWS V14.01,2013-01-30 15:07:00,
2013-01-30 10:12:00,64.7,56.6,29.55,East,84,4.0,18.0,75,0.00,,SKC,0.00,VWS V14.01,2013-01-30 15:12:00,
2013-01-30 10:17:00,65.0,56.5,29.54,North,355,2.0,8.0,74,0.00,,SKC,0.00,VWS V14.01,2013-01-30 15:17:00,
2013-01-30 10:22:00,64.9,56.4,29.54,WSW,244,9.0,9.0,74,0.00,,SKC,0.00,VWS V14.01,2013-01-30 15:22:00,
2013-01-30 10:27:00,64.9,56.4,29.53,West,279,0.0,11.0,74,0.00,,SKC,0.00,VWS V14.01,2013-01-30 15:27:00,
2013-01-30 10:32:00,65.3,56.8,29.52,WSW,240,7.0,11.0,74,0.00,,SKC,0.00,VWS V14.01,2013-01-30 15:32:00,
2013-01-30 10:37:00,65.6,56.7,29.53,NNW,327,2.0,9.0,73,0.00,,SKC,0.00,VWS V14.01,2013-01-30 15:37:00,
2013-01-30 10:42:00,65.7,57.2,29.52,ENE,76,1.0,11.0,74,0.00,,SKC,0.00,VWS V14.01,2013-01-30 15:42:00,
2013-01-30 10:47:00,65.8,56.9,29.53,SW,231,7.0,7.0,73,0.00,,SKC,0.00,VWS V14.01,2013-01-30 15:47:00,
2013-01-30 10:52:00,66.1,57.2,29.51,West,274,9.0,13.0,73,0.00,,SKC,0.00,VWS V14.01,2013-01-30 15:52:00,
2013-01-30 10:57:00,66.4,57.1,29.51,SSE,167,5.0,8.0,72,0.00,,SKC,0.00,VWS V14.01,2013-01-30 15:57:00,
2013-01-30 11:02:00,66.8,57.5,29.50,SE,130,5.0,15.0,72,0.00,,SKC,0.00,VWS V14.01,2013-01-30 16:02:00,
2013-01-30 11:07:00,67.0,57.7,29.50,SSE,151,10.0,13.0,72,0.00,,SKC,0.00,VWS V14.01,2013-01-30 16:07:00,
2013-01-30 11:12:00,67.1,57.8,29.50,ESE,122,5.0,5.0,72,0.00,,SKC,0.00,VWS V14.01,2013-01-30 16:12:00,
2013-01-30 11:17:00,67.2,57.5,29.49,SSW,194,13.0,13.0,71,0.00,,SKC,0.00,VWS V14.01,2013-01-30 16:17:00,
2013-01-30 11:22:00,67.3,57.6,29.48,West,279,9.0,18.0,71,0.00,,SKC,0.00,VWS V14.01,2013-01-30 16:22:00,
2013-01-30 11:27:00,67.4,57.7,29.48,NNW,334,4.0,10.0,71,0.00,,SKC,0.00,VWS V14.01,2013-01-30 16:27:00,
2013-01-30 11:32:00,67.6,57.9,29.48,South,181,11.0,22.0,71,0.00,,SKC,0.00,VWS V14.01,2013-01-30 16:32:00,
2013-01-30 11:37:00,67.5,57.8,29.48,SSE,165,7.0,20.0,71,0.00,,SKC,0.00,VWS V14.01,2013-01-30 16:37:00,
2013-01-30 11:42:00,67.5,58.2,29.47,SW,228,12.0,12.0,72,0.00,,SKC,0.00,VWS V14.01,2013-01-30 16:42:00,
2013-01-30 11:47:00,68.5,58.7,29.48,SW,219,7.0,12.0,71,0.00,,SKC,0.00,VWS V14.01,2013-01-30 16:47:00,
2013-01-30 11:52:00,69.3,59.1,29.47,South,178,9.0,18.0,70,0.00,,SKC,0.00,VWS V14.01,2013-01-30 16:52:00,
2013-01-30 11:57:00,69.1,58.9,29.47,South,188,13.0,20.0,70,0.00,,SKC,0.00,VWS V14.01,2013-01-30 16:57:00,
2013-01-30 12:02:00,68.9,58.7,29.47,WSW,239,4.0,10.0,70,0.00,,SKC,0.00,VWS V14.01,2013-01-30 17:02:00,
2013-01-30 12:07:00,68.5,58.7,29.47,East,98,2.0,15.0,71,0.00,,SKC,0.00,VWS V14.01,2013-01-30 17:07:00,
2013-01-30 12:12:00,68.2,58.5,29.46,West,260,16.0,16.0,71,0.00,,SKC,0.00,VWS V14.01,2013-01-30 17:12:00,
2013-01-30 12:17:00,68.0,58.3,29.46,ESE,111,10.0,10.0,71,0.00,,SKC,0.00,VWS V14.01,2013-01-30 17:17:00,
2013-01-30 12:22:00,67.7,58.4,29.46,ESE,117,1.0,8.0,72,0.00,,SKC,0.00,VWS V14.01,2013-01-30 17:22:00,
2013-01-30 12:27:00,67.3,58.4,29.47,SSW,206,1.0,8.0,73,0.00,,SKC,0.00,VWS V14.01,2013-01-30 17:27:00,
2013-01-30 12:32:00,67.1,58.5,29.48,SW,223,6.0,6.0,74,0.00,,SKC,0.00,VWS V14.01,2013-01-30 17:32:00,
2013-01-30 12:37:00,67.0,59.9,29.52,WNW,284,4.0,8.0,78,0.03,,SKC,0.03,VWS V14.01,2013-01-30 17:37:00,
2013-01-30 12:42:00,66.0,59.0,29.54,WNW,284,1.0,2.0,78,0.19,,SKC,0.19,VWS V14.01,2013-01-30 17:42:00,
2013-01-30 12:47:00,64.8,57.8,29.54,NNE,23,0.0,0.0,78,0.23,,SKC,0.23,VWS V14.01,2013-01-30 17:47:00,
2013-01-30 12:52:00,63.9,57.3,29.54,West,277,0.0,0.0,79,0.25,,SKC,0.25,VWS V14.01,2013-01-30 17:52:00,
2013-01-30 12:57:00,63.1,56.8,29.55,South,178,0.0,0.0,80,0.25,,SKC,0.25,VWS V14.01,2013-01-30 17:57:00,
2013-01-30 13:02:00,62.4,56.5,29.55,South,178,0.0,0.0,81,0.26,,SKC,0.26,VWS V14.01,2013-01-30 18:02:00,
2013-01-30 13:07:00,60.3,55.5,29.55,SE,146,0.0,0.0,84,0.27,,SKC,0.27,VWS V14.01,2013-01-30 18:07:00,
2013-01-30 13:12:00,59.0,55.1,29.56,NW,310,0.0,0.0,87,0.27,,SKC,0.27,VWS V14.01,2013-01-30 18:12:00,
2013-01-30 13:17:00,58.1,54.9,29.56,SW,225,0.0,0.0,89,0.28,,SKC,0.28,VWS V14.01,2013-01-30 18:17:00,
2013-01-30 13:22:00,57.8,55.2,29.55,ESE,122,0.0,0.0,91,0.29,,SKC,0.29,VWS V14.01,2013-01-30 18:22:00,
2013-01-30 13:27:00,57.7,55.4,29.54,ESE,122,0.0,0.0,92,0.30,,SKC,0.30,VWS V14.01,2013-01-30 18:27:00,
2013-01-30 13:32:00,57.8,55.8,29.53,SE,126,0.0,0.0,93,0.30,,SKC,0.30,VWS V14.01,2013-01-30 18:32:00,
2013-01-30 13:37:00,57.7,55.7,29.54,SE,126,0.0,0.0,93,0.29,,SKC,0.31,VWS V14.01,2013-01-30 18:37:00,
2013-01-30 13:42:00,57.6,55.9,29.54,SSE,157,0.0,0.0,94,0.13,,SKC,0.31,VWS V14.01,2013-01-30 18:42:00,
2013-01-30 13:47:00,57.5,55.8,29.54,West,273,0.0,0.0,94,0.08,,SKC,0.31,VWS V14.01,2013-01-30 18:47:00,
2013-01-30 13:52:00,57.3,55.6,29.54,SSW,192,0.0,0.0,94,0.06,,SKC,0.31,VWS V14.01,2013-01-30 18:52:00,
2013-01-30 13:57:00,57.2,55.5,29.54,SE,137,0.0,0.0,94,0.06,,SKC,0.31,VWS V14.01,2013-01-30 18:57:00,
2013-01-30 14:02:00,57.1,55.4,29.54,SW,218,0.0,0.0,94,0.06,,SKC,0.32,VWS V14.01,2013-01-30 19:02:00,
2013-01-30 14:07:00,57.0,55.3,29.54,South,173,5.0,5.0,94,0.06,,SKC,0.33,VWS V14.01,2013-01-30 19:07:00,
2013-01-30 14:12:00,56.9,55.2,29.53,South,171,1.0,1.0,94,0.06,,SKC,0.33,VWS V14.01,2013-01-30 19:12:00,
2013-01-30 14:17:00,56.9,55.2,29.53,South,178,0.0,1.0,94,0.05,,SKC,0.33,VWS V14.01,2013-01-30 19:17:00,
2013-01-30 14:22:00,57.0,55.3,29.52,SE,145,3.0,3.0,94,0.05,,SKC,0.34,VWS V14.01,2013-01-30 19:22:00,
2013-01-30 14:27:00,56.9,55.2,29.52,SSE,156,0.0,1.0,94,0.04,,SKC,0.34,VWS V14.01,2013-01-30 19:27:00,
2013-01-30 14:32:00,56.9,55.5,29.53,SW,216,0.0,0.0,95,0.05,,SKC,0.35,VWS V14.01,2013-01-30 19:32:00,
2013-01-30 14:37:00,56.9,55.5,29.53,South,173,0.0,0.0,95,0.04,,SKC,0.35,VWS V14.01,2013-01-30 19:37:00,
2013-01-30 14:42:00,56.9,55.5,29.53,SSE,167,1.0,1.0,95,0.06,,SKC,0.37,VWS V14.01,2013-01-30 19:42:00,
2013-01-30 14:47:00,56.8,55.1,29.53,South,174,0.0,0.0,94,0.06,,SKC,0.37,VWS V14.01,2013-01-30 19:47:00,
2013-01-30 14:52:00,56.7,55.0,29.53,SSE,167,0.0,0.0,94,0.06,,SKC,0.37,VWS V14.01,2013-01-30 19:52:00,
2013-01-30 14:57:00,56.6,54.9,29.52,SSE,167,0.0,0.0,94,0.07,,SKC,0.38,VWS V14.01,2013-01-30 19:57:00,
2013-01-30 15:02:00,56.6,54.9,29.51,SSE,167,0.0,0.0,94,0.06,,SKC,0.38,VWS V14.01,2013-01-30 20:02:00,
2013-01-30 15:07:00,56.5,54.8,29.51,SSE,162,0.0,0.0,94,0.05,,SKC,0.38,VWS V14.01,2013-01-30 20:07:00,
2013-01-30 15:12:00,56.4,54.7,29.51,South,170,0.0,0.0,94,0.05,,SKC,0.38,VWS V14.01,2013-01-30 20:12:00,
2013-01-30 15:17:00,56.3,54.6,29.50,South,171,0.0,0.0,94,0.05,,SKC,0.38,VWS V14.01,2013-01-30 20:17:00,
2013-01-30 15:22:00,56.2,54.5,29.50,South,171,0.0,0.0,94,0.04,,SKC,0.38,VWS V14.01,2013-01-30 20:22:00,
2013-01-30 15:27:00,56.2,54.5,29.50,South,171,0.0,0.0,94,0.05,,SKC,0.39,VWS V14.01,2013-01-30 20:27:00,
2013-01-30 15:32:00,56.1,54.4,29.49,SSW,199,0.0,0.0,94,0.06,,SKC,0.41,VWS V14.01,2013-01-30 20:32:00,
2013-01-30 15:37:00,56.0,54.3,29.50,SSE,153,0.0,0.0,94,0.06,,SKC,0.41,VWS V14.01,2013-01-30 20:37:00,
2013-01-30 15:42:00,55.9,54.2,29.49,SSE,159,0.0,0.0,94,0.05,,SKC,0.42,VWS V14.01,2013-01-30 20:42:00,
2013-01-30 15:47:00,55.8,54.1,29.49,SSW,205,0.0,0.0,94,0.06,,SKC,0.43,VWS V14.01,2013-01-30 20:47:00,
2013-01-30 15:52:00,55.7,54.0,29.49,South,169,0.0,0.0,94,0.07,,SKC,0.44,VWS V14.01,2013-01-30 20:52:00,
2013-01-30 15:57:00,55.7,54.0,29.49,SSW,213,0.0,1.0,94,0.08,,SKC,0.45,VWS V14.01,2013-01-30 20:57:00,
2013-01-30 16:02:00,55.5,53.8,29.50,WNW,288,0.0,0.0,94,0.08,,SKC,0.46,VWS V14.01,2013-01-30 21:02:00,
2013-01-30 16:07:00,55.5,53.8,29.50,SSE,168,0.0,0.0,94,0.12,,SKC,0.50,VWS V14.01,2013-01-30 21:07:00,
2013-01-30 16:12:00,55.3,53.6,29.50,South,178,0.0,1.0,94,0.15,,SKC,0.53,VWS V14.01,2013-01-30 21:12:00,
2013-01-30 16:17:00,55.2,53.5,29.49,SSW,192,0.0,6.0,94,0.16,,SKC,0.54,VWS V14.01,2013-01-30 21:17:00,
2013-01-30 16:22:00,55.1,53.4,29.49,SSE,163,0.0,4.0,94,0.18,,SKC,0.56,VWS V14.01,2013-01-30 21:22:00,
2013-01-30 16:27:00,54.9,53.2,29.48,SE,126,0.0,0.0,94,0.19,,SKC,0.58,VWS V14.01,2013-01-30 21:27:00,
2013-01-30 16:32:00,54.8,53.1,29.48,South,169,0.0,1.0,94,0.18,,SKC,0.59,VWS V14.01,2013-01-30 21:32:00,
2013-01-30 16:37:00,54.7,53.0,29.47,SE,146,0.0,0.0,94,0.18,,SKC,0.59,VWS V14.01,2013-01-30 21:37:00,
2013-01-30 16:42:00,54.6,52.9,29.47,SE,146,0.0,0.0,94,0.17,,SKC,0.59,VWS V14.01,2013-01-30 21:42:00,
2013-01-30 16:47:00,54.5,52.8,29.47,SE,146,0.0,0.0,94,0.17,,SKC,0.60,VWS V14.01,2013-01-30 21:47:00,
2013-01-30 16:52:00,54.4,52.7,29.47,SE,146,0.0,0.0,94,0.18,,SKC,0.62,VWS V14.01,2013-01-30 21:52:00,
2013-01-30 16:57:00,54.3,52.6,29.47,SE,146,0.0,0.0,94,0.19,,SKC,0.64,VWS V14.01,2013-01-30 21:57:00,
2013-01-30 17:02:00,54.2,52.5,29.47,SE,146,0.0,0.0,94,0.21,,SKC,0.66,VWS V14.01,2013-01-30 22:02:00,
2013-01-30 17:07:00,54.1,52.4,29.46,SE,146,0.0,0.0,94,0.18,,SKC,0.67,VWS V14.01,2013-01-30 22:07:00,
2013-01-30 17:12:00,54.1,52.4,29.47,South,184,0.0,5.0,94,0.17,,SKC,0.69,VWS V14.01,2013-01-30 22:12:00,
2013-01-30 17:17:00,54.0,52.3,29.47,SSE,159,0.0,1.0,94,0.16,,SKC,0.70,VWS V14.01,2013-01-30 22:17:00,
2013-01-30 17:22:00,53.9,52.2,29.46,SSE,167,0.0,0.0,94,0.17,,SKC,0.73,VWS V14.01,2013-01-30 22:22:00,
2013-01-30 17:27:00,53.8,52.1,29.47,SSE,167,0.0,0.0,94,0.17,,SKC,0.75,VWS V14.01,2013-01-30 22:27:00,
2013-01-30 17:32:00,53.8,52.1,29.46,SSE,161,0.0,0.0,94,0.17,,SKC,0.76,VWS V14.01,2013-01-30 22:32:00,
2013-01-30 17:37:00,53.7,52.0,29.46,SW,230,0.0,0.0,94,0.19,,SKC,0.78,VWS V14.01,2013-01-30 22:37:00,
2013-01-30 17:42:00,53.6,51.9,29.46,SW,233,0.0,0.0,94,0.20,,SKC,0.79,VWS V14.01,2013-01-30 22:42:00,
2013-01-30 17:47:00,53.6,51.9,29.45,SSW,204,0.0,6.0,94,0.20,,SKC,0.80,VWS V14.01,2013-01-30 22:47:00,
2013-01-30 17:52:00,53.5,51.8,29.45,SSW,213,0.0,0.0,94,0.19,,SKC,0.80,VWS V14.01,2013-01-30 22:52:00,
2013-01-30 17:57:00,53.5,51.8,29.44,South,177,1.0,2.0,94,0.17,,SKC,0.81,VWS V14.01,2013-01-30 22:57:00,
2013-01-30 18:02:00,53.4,51.7,29.44,ESE,112,0.0,0.0,94,0.17,,SKC,0.82,VWS V14.01,2013-01-30 23:02:00,
2013-01-30 18:07:00,53.4,51.7,29.44,SSW,195,0.0,0.0,94,0.16,,SKC,0.83,VWS V14.01,2013-01-30 23:07:00,
2013-01-30 18:12:00,53.4,51.7,29.43,SSW,195,0.0,0.0,94,0.14,,SKC,0.83,VWS V14.01,2013-01-30 23:12:00,
2013-01-30 18:17:00,53.4,51.7,29.44,SSW,195,0.0,0.0,94,0.14,,SKC,0.84,VWS V14.01,2013-01-30 23:17:00,
2013-01-30 18:22:00,53.3,51.6,29.43,SSE,148,0.0,1.0,94,0.12,,SKC,0.85,VWS V14.01,2013-01-30 23:22:00,
2013-01-30 18:27:00,53.3,51.9,29.42,SE,128,0.0,0.0,95,0.11,,SKC,0.86,VWS V14.01,2013-01-30 23:27:00,
2013-01-30 18:32:00,53.3,51.9,29.41,SSE,148,0.0,1.0,95,0.11,,SKC,0.87,VWS V14.01,2013-01-30 23:32:00,
2013-01-30 18:37:00,53.3,51.9,29.40,SE,143,5.0,5.0,95,0.10,,SKC,0.88,VWS V14.01,2013-01-30 23:37:00,
2013-01-30 18:42:00,53.3,51.9,29.40,SSE,162,0.0,0.0,95,0.10,,SKC,0.89,VWS V14.01,2013-01-30 23:42:00,
2013-01-30 18:47:00,53.4,52.0,29.40,SE,134,1.0,4.0,95,0.09,,SKC,0.89,VWS V14.01,2013-01-30 23:47:00,
2013-01-30 18:52:00,53.4,52.0,29.40,SE,138,1.0,1.0,95,0.09,,SKC,0.89,VWS V14.01,2013-01-30 23:52:00,
2013-01-30 18:57:00,53.4,52.0,29.41,SSE,165,0.0,0.0,95,0.09,,SKC,0.90,VWS V14.01,2013-01-30 23:57:00,
2013-01-30 19:02:00,53.5,52.1,29.39,ESE,113,0.0,3.0,95,0.08,,SKC,0.90,VWS V14.01,2013-01-31 00:02:00,
2013-01-30 19:07:00,53.5,52.1,29.38,South,171,0.0,2.0,95,0.08,,SKC,0.91,VWS V14.01,2013-01-31 00:07:00,
2013-01-30 19:12:00,53.5,52.1,29.37,WSW,253,0.0,1.0,95,0.09,,SKC,0.92,VWS V14.01,2013-01-31 00:12:00,
2013-01-30 19:17:00,53.5,52.1,29.37,SSW,205,0.0,0.0,95,0.09,,SKC,0.93,VWS V14.01,2013-01-31 00:17:00,
2013-01-30 19:22:00,53.5,52.1,29.36,South,178,0.0,0.0,95,0.08,,SKC,0.93,VWS V14.01,2013-01-31 00:22:00,
2013-01-30 19:27:00,53.5,52.1,29.37,SSE,150,3.0,3.0,95,0.08,,SKC,0.94,VWS V14.01,2013-01-31 00:27:00,
2013-01-30 19:32:00,53.4,52.0,29.37,South,184,0.0,0.0,95,0.07,,SKC,0.94,VWS V14.01,2013-01-31 00:32:00,
2013-01-30 19:37:00,53.4,52.0,29.36,SSE,155,0.0,0.0,95,0.07,,SKC,0.95,VWS V14.01,2013-01-31 00:37:00,
2013-01-30 19:42:00,53.3,51.9,29.35,WSW,238,0.0,0.0,95,0.06,,SKC,0.95,VWS V14.01,2013-01-31 00:42:00,
2013-01-30 19:47:00,53.3,51.9,29.34,South,180,0.0,1.0,95,0.06,,SKC,0.95,VWS V14.01,2013-01-31 00:47:00,
2013-01-30 19:52:00,53.3,51.9,29.33,WSW,240,0.0,1.0,95,0.06,,SKC,0.95,VWS V14.01,2013-01-31 00:52:00,
2013-01-30 19:57:00,53.2,51.8,29.33,SW,234,0.0,0.0,95,0.05,,SKC,0.95,VWS V14.01,2013-01-31 00:57:00,
2013-01-30 20:02:00,53.2,51.8,29.33,SSW,209,0.0,0.0,95,0.05,,SKC,0.95,VWS V14.01,2013-01-31 01:02:00,
2013-01-30 20:07:00,53.2,51.8,29.33,South,191,4.0,4.0,95,0.05,,SKC,0.96,VWS V14.01,2013-01-31 01:07:00,
2013-01-30 20:12:00,53.2,51.8,29.33,South,186,1.0,5.0,95,0.04,,SKC,0.96,VWS V14.01,2013-01-31 01:12:00,
2013-01-30 20:17:00,53.2,51.8,29.33,West,266,0.0,0.0,95,0.04,,SKC,0.97,VWS V14.01,2013-01-31 01:17:00,
2013-01-30 20:22:00,53.2,51.8,29.32,SSE,151,0.0,0.0,95,0.04,,SKC,0.97,VWS V14.01,2013-01-31 01:22:00,
2013-01-30 20:27:00,53.3,51.9,29.30,SE,138,5.0,5.0,95,0.04,,SKC,0.98,VWS V14.01,2013-01-31 01:27:00,
2013-01-30 20:32:00,53.3,51.9,29.31,SSE,165,0.0,0.0,95,0.04,,SKC,0.98,VWS V14.01,2013-01-31 01:32:00,
2013-01-30 20:37:00,53.4,52.0,29.30,South,181,0.0,4.0,95,0.03,,SKC,0.98,VWS V14.01,2013-01-31 01:37:00,
2013-01-30 20:42:00,53.5,52.1,29.29,SW,222,0.0,0.0,95,0.04,,SKC,0.99,VWS V14.01,2013-01-31 01:42:00,
2013-01-30 20:47:00,53.6,52.2,29.29,South,176,1.0,1.0,95,0.04,,SKC,0.99,VWS V14.01,2013-01-31 01:47:00,
2013-01-30 20:52:00,53.6,52.2,29.29,West,265,0.0,0.0,95,0.06,,SKC,1.01,VWS V14.01,2013-01-31 01:52:00,
2013-01-30 20:57:00,53.7,52.3,29.28,South,175,0.0,0.0,95,0.06,,SKC,1.01,VWS V14.01,2013-01-31 01:57:00,
2013-01-30 21:02:00,53.7,52.3,29.28,SSE,153,2.0,2.0,95,0.07,,SKC,1.02,VWS V14.01,2013-01-31 02:02:00,
2013-01-30 21:07:00,53.7,52.3,29.27,South,180,0.0,0.0,95,0.07,,SKC,1.03,VWS V14.01,2013-01-31 02:07:00,
2013-01-30 21:12:00,53.7,52.3,29.26,South,178,4.0,4.0,95,0.08,,SKC,1.04,VWS V14.01,2013-01-31 02:12:00,
2013-01-30 21:17:00,53.7,52.3,29.25,WSW,244,1.0,1.0,95,0.07,,SKC,1.04,VWS V14.01,2013-01-31 02:17:00,
2013-01-30 21:22:00,53.7,52.3,29.25,SSW,204,2.0,2.0,95,0.08,,SKC,1.05,VWS V14.01,2013-01-31 02:22:00,
2013-01-30 21:27:00,53.7,52.3,29.25,South,189,2.0,5.0,95,0.08,,SKC,1.05,VWS V14.01,2013-01-31 02:27:00,
2013-01-30 21:31:00,53.7,52.3,29.24,South,171,1.0,1.0,95,0.08,,SKC,1.06,VWS V14.01,2013-01-31 02:31:00,
2013-01-30 21:36:00,53.8,52.4,29.24,SE,133,0.0,1.0,95,0.09,,SKC,1.07,VWS V14.01,2013-01-31 02:36:00,
2013-01-30 21:41:00,53.8,52.4,29.24,SE,126,0.0,1.0,95,0.09,,SKC,1.08,VWS V14.01,2013-01-31 02:41:00,
2013-01-30 21:46:00,53.8,52.4,29.23,SSW,209,5.0,5.0,95,0.10,,SKC,1.09,VWS V14.01,2013-01-31 02:46:00,
2013-01-30 21:51:00,53.9,52.5,29.22,SSW,196,0.0,0.0,95,0.11,,SKC,1.11,VWS V14.01,2013-01-31 02:51:00,
2013-01-30 21:56:00,53.9,52.5,29.22,SSE,167,0.0,1.0,95,0.10,,SKC,1.11,VWS V14.01,2013-01-31 02:56:00,
2013-01-30 22:01:00,53.8,52.4,29.22,SW,215,0.0,0.0,95,0.11,,SKC,1.13,VWS V14.01,2013-01-31 03:01:00,
2013-01-30 22:06:00,53.8,52.4,29.21,SSW,193,0.0,0.0,95,0.11,,SKC,1.14,VWS V14.01,2013-01-31 03:06:00,
2013-01-30 22:11:00,53.8,52.4,29.21,SW,218,0.0,3.0,95,0.11,,SKC,1.15,VWS V14.01,2013-01-31 03:11:00,
2013-01-30 22:16:00,53.7,52.3,29.20,SW,218,0.0,0.0,95,0.13,,SKC,1.17,VWS V14.01,2013-01-31 03:16:00,
2013-01-30 22:21:00,53.6,52.2,29.20,SW,218,0.0,0.0,95,0.12,,SKC,1.17,VWS V14.01,2013-01-31 03:21:00,
2013-01-30 22:26:00,53.6,52.2,29.19,SW,218,0.0,0.0,95,0.12,,SKC,1.17,VWS V14.01,2013-01-31 03:26:00,
2013-01-30 22:31:00,53.5,52.1,29.20,SW,235,0.0,0.0,95,0.12,,SKC,1.18,VWS V14.01,2013-01-31 03:31:00,
2013-01-30 22:36:00,53.4,52.0,29.22,SW,235,0.0,0.0,95,0.12,,SKC,1.19,VWS V14.01,2013-01-31 03:36:00,
2013-01-30 22:41:00,53.3,51.9,29.22,WNW,295,0.0,2.0,95,0.14,,SKC,1.22,VWS V14.01,2013-01-31 03:41:00,
2013-01-30 22:46:00,53.2,51.8,29.21,WNW,288,0.0,1.0,95,0.16,,SKC,1.25,VWS V14.01,2013-01-31 03:46:00,
2013-01-30 22:51:00,53.2,51.8,29.21,SSW,205,0.0,2.0,95,0.18,,SKC,1.28,VWS V14.01,2013-01-31 03:51:00,
2013-01-30 22:56:00,53.1,51.7,29.20,SW,236,0.0,1.0,95,0.18,,SKC,1.29,VWS V14.01,2013-01-31 03:56:00,
2013-01-30 23:01:00,53.1,51.7,29.20,WNW,300,0.0,8.0,95,0.18,,SKC,1.31,VWS V14.01,2013-01-31 04:01:00,
2013-01-30 23:06:00,53.0,51.6,29.20,WNW,300,0.0,0.0,95,0.20,,SKC,1.34,VWS V14.01,2013-01-31 04:06:00,
2013-01-30 23:11:00,53.0,51.6,29.21,SW,224,0.0,2.0,95,0.21,,SKC,1.36,VWS V14.01,2013-01-31 04:11:00,
2013-01-30 23:16:00,52.9,51.5,29.21,SW,221,0.0,0.0,95,0.22,,SKC,1.38,VWS V14.01,2013-01-31 04:16:00,
2013-01-30 23:21:00,52.8,51.4,29.20,SW,230,0.0,0.0,95,0.24,,SKC,1.41,VWS V14.01,2013-01-31 04:21:00,
2013-01-30 23:26:00,52.7,51.3,29.21,WNW,291,0.0,0.0,95,0.27,,SKC,1.44,VWS V14.01,2013-01-31 04:26:00,
2013-01-30 23:31:00,52.5,51.1,29.24,WSW,238,0.0,0.0,95,0.27,,SKC,1.45,VWS V14.01,2013-01-31 04:31:00,
2013-01-30 23:36:00,52.3,50.9,29.23,WSW,240,0.0,6.0,95,0.29,,SKC,1.48,VWS V14.01,2013-01-31 04:36:00,
2013-01-30 23:41:00,52.0,50.6,29.22,SE,138,0.0,0.0,95,0.29,,SKC,1.50,VWS V14.01,2013-01-31 04:41:00,
2013-01-30 23:46:00,51.8,50.4,29.21,ENE,78,0.0,2.0,95,0.26,,SKC,1.50,VWS V14.01,2013-01-31 04:46:00,
2013-01-30 23:51:00,51.5,49.8,29.20,South,187,2.0,5.0,94,0.24,,SKC,1.51,VWS V14.01,2013-01-31 04:51:00,
2013-01-30 23:56:00,51.4,50.0,29.19,SSW,210,0.0,0.0,95,0.22,,SKC,1.51,VWS V14.01,2013-01-31 04:56:00,